Terminal Aerodrome Forecast
Issued by NWS

Home | Current Version | Previous Version | Text Only | Print | Product List | Glossary On
Versions: 1 2 3 4 5 6 7 8 9 10 11 12 13 14 15 16 17 18 19 20 21 22
000
FTUS43 KDLH 242300
TAFHYR
TAF
KHYR 242333Z 2500/2524 08009KT P6SM VCSH SCT025 OVC070
     FM250300 08008KT P6SM VCSH SCT022 OVC035
      TEMPO 2503/2506 BKN022
     FM250600 08007KT P6SM OVC022
     FM251600 07009KT P6SM BKN040
     FM252200 04009KT P6SM BKN080=

USA.gov is the U.S. government's official web portal to all federal, state and local government web resources and services.